NEODyS-2

Near Earth Objects - Dynamic Site
NEODyS ∴ Observatories ∴ Site 691 ∴ Obs & residuals
Contact »
691  ▹ 
OBSERVATIONS AND RESIDUALS

691-Steward Observatory, Kitt Peak-Spacewatch

Detections | Residuals | Detections & Residuals

[1-200] [201-400] [401-600] [601-800] [801-1000] [1001-1200] [1201-1400] [1401-1600] [1601-1800] [1801-2000] [2001-2200] [2201-2400] [2401-2600] [2601-2800] [2801-3000] [3001-3200] [3201-3400] [3401-3600] [3601-3800] [3801-4000] [4001-4200] [4201-4400] [4401-4600] [4601-4800] [4801-5000] [5001-5200] [5201-5400] [5401-5600] [5601-5800] [5801-6000] [6001-6200] [6201-6400] [6401-6600] [6601-6800] [6801-7000] [7001-7200] [7201-7400] [7401-7600] [7601-7800] [7801-8000] [8001-8200] [8201-8400] [8401-8600] [8601-8800] [8801-9000] [9001-9200] [9201-9400] [9401-9600] [9601-9800] [9801-10000] [10001-10200] [10201-10400] [10401-10600] [10601-10800] [10801-11000] [11001-11200] [11201-11400] [11401-11600] [11601-11800] [11801-12000] [12001-12200] [12201-12400] [12401-12600] [12601-12800] [12801-13000] [13001-13200] [13201-13400] [13401-13600] [13601-13800] [13801-14000] [14001-14200] [14201-14400] [14401-14600] [14601-14800] [14801-15000] [15001-15200] [15201-15400] [15401-15600] [15601-15800] [15801-16000] [16001-16200] [16201-16400] [16401-16600] [16601-16800] [16801-17000] [17001-17200] [17201-17400] [17401-17600] [17601-17800] [17801-18000] [18001-18200] [18201-18400] [18401-18600] [18601-18800] [18801-19000] [19001-19200] [19201-19400] [19401-19600] [19601-19800] [19801-20000] [20001-20200] [20201-20400] [20401-20600] [20601-20800] [20801-21000] [21001-21200] [21201-21400] [21401-21600] [21601-21800] [21801-22000] [22001-22200] [22201-22400] [22401-22600] [22601-22800] [22801-23000] [23001-23200] [23201-23400] [23401-23600] [23601-23800] [23801-24000] [24001-24200] [24201-24400] [24401-24600] [24601-24800] [24801-25000] [25001-25200] [25201-25400] [25401-25600] [25601-25800] [25801-26000] [26001-26200] [26201-26400] [26401-26600] [26601-26800] [26801-27000] [27001-27200] [27201-27400] [27401-27600] [27601-27800] [27801-28000] [28001-28200] [28201-28400] [28401-28600] [28601-28800] [28801-29000] [29001-29200] [29201-29400] [29401-29600] [29601-29800] [29801-30000] [30001-30200] [30201-30400] [30401-30600] [30601-30800] [30801-31000] [31001-31200] [31201-31400] [31401-31600] [31601-31800] [31801-32000] [32001-32200] [32201-32400] [32401-32600] [32601-32800] [32801-33000] [33001-33200] [33201-33400] [33401-33600] [33601-33800] [33801-34000] [34001-34200] [34201-34400] [34401-34600] [34601-34800] [34801-35000] [35001-35200] [35201-35400] [35401-35600] [35601-35800] [35801-36000] [36001-36200] [36201-36400] [36401-36600] [36601-36800] [36801-37000] [37001-37200] [37201-37400] [37401-37600] [37601-37800] [37801-38000] [38001-38200] [38201-38400] [38401-38600] [38601-38800] [38801-39000] [39001-39200] [39201-39400] [39401-39600] [39601-39800] [39801-40000] [40001-40200] [40201-40400] [40401-40600] [40601-40800] [40801-41000] [41001-41200] [41201-41400] [41401-41600] [41601-41800] [41801-42000] [42001-42200] [42201-42400] [42401-42600] [42601-42800] [42801-43000] [43001-43200] [43201-43400] [43401-43600] [43601-43800] [43801-44000] [44001-44200] [44201-44400] [44401-44600] [44601-44800] [44801-45000] [45001-45200] [45201-45400] [45401-45600] [45601-45800] [45801-46000] [46001-46200] [46201-46400] [46401-46600] [46601-46800] [46801-47000] [47001-47200] [47201-47400] [47401-47600] [47601-47800] [47801-48000] [48001-48200] [48201-48400] [48401-48600] [48601-48800] [48801-49000] [49001-49200] [49201-49400] [49401-49600] [49601-49800] [49801-50000] [50001-50200] [50201-50388]

Designation T Tech N Date Right Ascension Declination Apparent Magnitude Star Catalog Site code χ Used A Used M
yr-mo-day precision hr:min:sec precision rms F bias residual deg min sec precision rms F bias residual mag/col rms residual
2013BE19 O C K 2019-03-09.13923 1.000E-05 04:05:00.920 1.500E-01 0.500 F -0.317 -0.153 +16° 23' 18.00" 1.000E-01 0.500 F 0.156 -0.133 o 691 0.41 Yes No
2013BE19 O C K 2019-03-09.14930 1.000E-05 04:05:02.210 1.500E-01 0.500 F -0.317 -0.228 +16° 22' 54.80" 1.000E-01 0.500 F 0.156 -0.163 o 691 0.56 Yes No
2019DP O C K 2019-03-09.18277 1.000E-05 09:29:26.510 1.500E-01 0.500 F 0.150 -0.133 -17° 36' 58.60" 1.000E-01 0.500 F -0.125 -0.286 20.8 R 0.70 0.53 o 691 0.63 Yes Yes
2003FF5 O C K 2019-03-09.18870 1.000E-05 09:31:23.700 1.500E-01 0.500 F 0.106 -0.027 -02° 38' 36.00" 1.000E-01 0.500 F 0.134 -0.180 o 691 0.37 Yes No
2019CS1 O C K 2019-03-09.19860 1.000E-05 09:43:19.200 1.500E-01 0.500 F 0.020 -0.035 -00° 31' 16.00" 1.000E-01 0.500 F 0.240 -0.019 20.1 R 0.70 0.26 o 691 0.08 Yes Yes
2019DP O C K 2019-03-09.20256 1.000E-05 09:29:25.010 1.500E-01 0.500 F 0.150 0.379 -17° 37' 23.50" 1.000E-01 0.500 F -0.125 -0.444 21.3 R 0.70 1.03 o 691 1.17 Yes Yes
2003FF5 O C K 2019-03-09.20835 1.000E-05 09:31:21.030 1.500E-01 0.500 F 0.106 0.122 -02° 38' 06.80" 1.000E-01 0.500 F 0.134 -0.047 o 691 0.27 Yes No
2019CS1 O C K 2019-03-09.21824 1.000E-05 09:43:16.970 1.500E-01 0.500 F 0.020 -0.058 -00° 31' 03.80" 1.000E-01 0.500 F 0.240 -0.290 20.3 R 0.70 0.46 o 691 0.60 Yes Yes
2019DP O C K 2019-03-09.22220 1.000E-05 09:29:23.430 1.500E-01 0.500 F 0.150 -0.091 -17° 37' 46.90" 1.000E-01 0.500 F -0.125 0.137 o 691 0.33 Yes No
2003FF5 O C K 2019-03-09.22800 1.000E-05 09:31:18.280 1.500E-01 0.500 F 0.106 -0.810 -02° 37' 37.30" 1.000E-01 0.500 F 0.134 0.339 o 691 1.79 Yes No
2019CS1 O C K 2019-03-09.23791 1.000E-05 09:43:14.730 1.500E-01 0.500 F 0.020 -0.118 -00° 30' 51.40" 1.000E-01 0.500 F 0.240 -0.378 20.0 R 0.70 0.15 o 691 0.80 Yes Yes
2019DH1 O C K 2019-03-09.24322 1.000E-05 09:11:45.660 1.500E-01 0.500 F 0.112 0.206 -03° 09' 23.70" 1.000E-01 0.500 F 0.094 -0.062 o 691 0.44 Yes No
2019DH1 O C K 2019-03-09.24948 1.000E-05 09:11:40.390 1.500E-01 0.500 F 0.112 0.338 -03° 09' 37.00" 1.000E-01 0.500 F 0.094 -0.237 o 691 0.85 Yes No
2019DH1 O C K 2019-03-09.25574 1.000E-05 09:11:35.050 1.500E-01 0.500 F 0.112 -0.556 -03° 09' 50.70" 1.000E-01 0.500 F 0.094 -0.822 o 691 2.05 Yes No
2013AW52 O C K 2019-03-09.26989 1.000E-05 09:27:37.740 1.500E-01 0.500 F 0.005 -0.442 -08° 58' 50.90" 1.000E-01 0.500 F 0.048 0.224 o 691 1.05 Yes No
2013AW52 O C K 2019-03-09.28020 1.000E-05 09:27:36.310 1.500E-01 0.500 F 0.005 0.176 -08° 58' 46.60" 1.000E-01 0.500 F 0.048 -0.118 o 691 0.45 Yes No
2013AW52 O C K 2019-03-09.29051 1.000E-05 09:27:34.850 1.500E-01 0.500 F 0.005 0.333 -08° 58' 42.20" 1.000E-01 0.500 F 0.048 -0.368 o 691 1.05 Yes No
2009FD O C K 2019-03-09.30333 1.000E-05 10:02:56.550 1.500E-01 0.500 F 0.140 -0.249 +18° 29' 03.50" 1.000E-01 0.500 F 0.194 -0.219 o 691 0.66 Yes No
2009FD O C K 2019-03-09.32212 1.000E-05 10:02:50.810 1.500E-01 0.500 F 0.140 0.280 +18° 29' 27.90" 1.000E-01 0.500 F 0.194 -0.188 o 691 0.68 Yes No
2019CU1 O C 2019-03-09.35751 1.000E-05 12:11:01.140 1.500E-01 0.500 F 0.280 -0.502 -02° 14' 23.40" 1.000E-01 0.500 F 0.236 0.234 20.1 V 0.70 0.25 o 691 1.13 Yes Yes
2019CT O C K 2019-03-09.35751 1.000E-05 12:12:40.520 1.500E-01 0.500 F 0.280 0.341 -01° 47' 44.50" 1.000E-01 0.500 F 0.236 0.160 20.4 R 0.70 -0.18 o 691 0.76 Yes Yes
2019CT O C K 2019-03-09.37578 1.000E-05 12:12:42.460 1.500E-01 0.500 F 0.280 -0.112 -01° 47' 43.50" 1.000E-01 0.500 F 0.236 0.030 20.9 R 0.70 0.32 o 691 0.24 Yes Yes
2019CU1 O C 2019-03-09.37824 1.000E-05 12:10:57.860 1.500E-01 0.500 F 0.280 -0.575 -02° 14' 10.50" 1.000E-01 0.500 F 0.236 0.129 20.1 V 0.70 0.25 o 691 1.20 Yes Yes
2019CT O C K 2019-03-09.39405 1.000E-05 12:12:44.480 1.500E-01 0.500 F 0.280 0.583 -01° 47' 42.50" 1.000E-01 0.500 F 0.236 -0.126 20.8 R 0.70 0.22 o 691 1.22 Yes Yes
2019CU1 O C 2019-03-09.39896 1.000E-05 12:10:54.590 1.500E-01 0.500 F 0.280 -0.621 -02° 13' 57.40" 1.000E-01 0.500 F 0.236 0.216 20.6 V 0.70 0.75 o 691 1.34 Yes Yes
2018XH O C K 2019-03-09.51333 1.000E-05 16:16:08.780 1.500E-01 0.500 F 0.146 0.421 -27° 37' 03.90" 1.000E-01 0.500 F 0.381 -0.117 o 691 0.88 Yes No
2018XH O C K 2019-03-09.52007 1.000E-05 16:16:09.220 1.500E-01 0.500 F 0.146 0.388 -27° 37' 04.90" 1.000E-01 0.500 F 0.381 0.317 o 691 1.01 Yes No
2018XH O C K 2019-03-09.52681 1.000E-05 16:16:09.670 1.500E-01 0.500 F 0.146 0.493 -27° 37' 07.30" 1.000E-01 0.500 F 0.381 -0.680 o 691 1.69 Yes No
2015EG O C 2019-03-10.22017 1.000E-05 09:26:19.660 1.500E-01 0.500 F 0.096 -0.218 +15° 58' 56.50" 1.000E-01 0.500 F 0.355 0.112 19.3 V 0.70 -0.01 o 691 0.49 Yes Yes
2015EG O C 2019-03-10.22546 1.000E-05 09:26:19.550 1.500E-01 0.500 F 0.096 -0.287 +15° 59' 15.90" 1.000E-01 0.500 F 0.355 0.032 19.2 V 0.70 -0.11 o 691 0.58 Yes Yes
2015EG O C 2019-03-10.22943 1.000E-05 09:26:19.480 1.500E-01 0.500 F 0.096 -0.145 +15° 59' 30.50" 1.000E-01 0.500 F 0.355 0.088 19.4 V 0.70 0.09 o 691 0.34 Yes Yes
2019DH1 O C K 2019-03-10.24887 1.000E-05 08:58:18.080 1.500E-01 0.500 F 0.175 0.507 -03° 46' 33.90" 1.000E-01 0.500 F 0.050 0.419 19.6 R 0.70 -0.19 o 691 1.37 Yes Yes
2019DH1 O C K 2019-03-10.25179 1.000E-05 08:58:15.210 1.500E-01 0.500 F 0.175 -0.904 -03° 46' 40.90" 1.000E-01 0.500 F 0.050 0.194 19.9 R 0.70 0.11 o 691 1.91 Yes Yes
2019DH1 O C K 2019-03-10.25471 1.000E-05 08:58:12.480 1.500E-01 0.500 F 0.175 -0.221 -03° 46' 47.90" 1.000E-01 0.500 F 0.050 -0.034 o 691 0.46 Yes No
2019DP O C K 2019-03-10.25894 1.000E-05 09:28:52.820 1.500E-01 0.500 F 0.150 -0.092 -17° 56' 15.60" 1.000E-01 0.500 F -0.125 0.051 o 691 0.21 Yes No
2019DP O C K 2019-03-10.26443 1.000E-05 09:28:52.470 1.500E-01 0.500 F 0.150 0.137 -17° 56' 20.70" 1.000E-01 0.500 F -0.125 0.120 o 691 0.37 Yes No
2019DP O C K 2019-03-10.26991 1.000E-05 09:28:52.100 1.500E-01 0.500 F 0.150 0.048 -17° 56' 26.20" 1.000E-01 0.500 F -0.125 -0.262 o 691 0.53 Yes No
2009FD O C K 2019-03-10.31910 1.000E-05 09:57:51.390 1.500E-01 0.500 F 0.103 -0.273 +18° 51' 09.10" 1.000E-01 0.500 F 0.284 -0.129 20.8 R 0.70 0.36 o 691 0.61 Yes Yes
2009FD O C K 2019-03-10.32273 1.000E-05 09:57:50.280 1.500E-01 0.500 F 0.103 0.216 +18° 51' 13.80" 1.000E-01 0.500 F 0.284 -0.063 20.8 R 0.70 0.36 o 691 0.45 Yes Yes
2009FD O C K 2019-03-10.32635 1.000E-05 09:57:49.120 1.500E-01 0.500 F 0.103 -0.053 +18° 51' 18.30" 1.000E-01 0.500 F 0.284 -0.180 20.6 R 0.70 0.16 o 691 0.37 Yes Yes
2019DR O C K 2019-03-10.33110 1.000E-05 10:21:32.410 1.500E-01 0.500 F 0.136 -0.028 +02° 21' 35.30" 1.000E-01 0.500 F 0.100 -0.169 o 691 0.36 Yes No
2019DR O C K 2019-03-10.33889 1.000E-05 10:21:33.440 1.500E-01 0.500 F 0.136 0.147 +02° 21' 22.10" 1.000E-01 0.500 F 0.100 -0.262 o 691 0.62 Yes No
2019DR O C K 2019-03-10.34668 1.000E-05 10:21:34.490 1.500E-01 0.500 F 0.136 0.564 +02° 21' 09.10" 1.000E-01 0.500 F 0.100 -0.157 o 691 1.22 Yes No
2019AH11 O C K 2019-03-11.11145 1.000E-05 05:46:58.510 1.500E-01 0.500 F -0.129 0.391 -03° 54' 41.70" 1.000E-01 0.500 F 0.013 -0.367 21.4 R 0.70 0.32 o 691 1.08 Yes Yes
2019AH11 O C K 2019-03-11.11681 1.000E-05 05:46:58.860 1.500E-01 0.500 F -0.129 -0.139 -03° 54' 36.60" 1.000E-01 0.500 F 0.013 -0.120 21.6 R 0.70 0.52 o 691 0.38 Yes Yes
2019AH11 O C K 2019-03-11.12215 1.000E-05 05:46:59.340 1.500E-01 0.500 F -0.129 1.295 -03° 54' 31.90" 1.000E-01 0.500 F 0.013 -0.256 21.6 R 0.70 0.52 o 691 2.66 Yes Yes
2015BY310 O C K 2019-03-11.13073 1.000E-05 05:14:40.080 1.500E-01 0.500 F -0.051 0.306 +01° 17' 53.60" 1.000E-01 0.500 F 0.137 0.061 18.7 R 0.70 -0.03 o 691 0.63 Yes Yes
2015BY310 O C K 2019-03-11.13383 1.000E-05 05:14:38.640 1.500E-01 0.500 F -0.051 -0.273 +01° 17' 29.00" 1.000E-01 0.500 F 0.137 -0.270 19.1 R 0.70 0.37 o 691 0.78 Yes Yes
2015BY310 O C K 2019-03-11.13694 1.000E-05 05:14:37.260 1.500E-01 0.500 F -0.051 0.100 +01° 17' 04.60" 1.000E-01 0.500 F 0.137 -0.317 18.2 R 0.70 -0.53 o 691 0.67 Yes Yes
2019EC2 O C 2019-03-11.14498 1.000E-05 08:34:57.320 1.500E-01 0.500 F -0.087 -0.511 -17° 10' 13.50" 1.000E-01 0.500 F -0.145 0.143 19.6 V 0.70 0.78 o 691 1.07 Yes Yes
2019EC2 O C 2019-03-11.14934 1.000E-05 08:34:58.460 1.500E-01 0.500 F -0.087 -0.781 -17° 09' 50.00" 1.000E-01 0.500 F -0.145 -0.006 19.5 V 0.70 0.68 o 691 1.58 Yes Yes
2019EC2 O C 2019-03-11.15370 1.000E-05 08:34:59.640 1.500E-01 0.500 F -0.087 -0.467 -17° 09' 26.60" 1.000E-01 0.500 F -0.145 -0.272 19.5 V 0.70 0.68 o 691 1.09 Yes Yes
2019EN O C 2019-03-17.20551 1.000E-05 09:44:07.800 1.500E-01 0.500 F 0.184 -0.389 -27° 52' 10.10" 1.000E-01 0.500 F 0.112 0.110 18.4 V 0.70 0.73 o 691 0.82 Yes Yes
2019EN O C 2019-03-17.21080 1.000E-05 09:44:05.940 1.500E-01 0.500 F 0.184 0.018 -27° 52' 31.70" 1.000E-01 0.500 F 0.112 0.061 18.6 V 0.70 0.93 o 691 0.13 Yes Yes
2019EN O C 2019-03-17.21608 1.000E-05 09:44:04.040 1.500E-01 0.500 F 0.184 -0.115 -27° 52' 53.20" 1.000E-01 0.500 F 0.112 0.048 18.6 V 0.70 0.93 o 691 0.25 Yes Yes
2014EQ49 O C 2019-03-17.23060 1.000E-05 12:51:04.940 1.500E-01 0.500 F 0.214 -0.625 +16° 53' 50.00" 1.000E-01 0.500 F 0.195 -0.109 20.0 V 0.70 0.15 o 691 1.29 Yes Yes
2014EQ49 O C 2019-03-17.24145 1.000E-05 12:51:01.710 1.500E-01 0.500 F 0.214 0.015 +16° 53' 26.20" 1.000E-01 0.500 F 0.195 0.489 19.6 V 0.70 -0.25 o 691 0.99 Yes Yes
2014EQ49 O C 2019-03-17.25110 1.000E-05 12:50:58.790 1.500E-01 0.500 F 0.214 -0.006 +16° 53' 04.20" 1.000E-01 0.500 F 0.195 0.222 20.1 V 0.70 0.25 o 691 0.45 Yes Yes
2014HS178 O C K 2019-03-17.25436 1.000E-05 12:43:01.820 1.500E-01 0.500 F 0.191 -0.332 +21° 43' 47.80" 1.000E-01 0.500 F 0.258 -0.162 19.3 R 0.70 0.10 o 691 0.76 Yes Yes
2014HS178 O C K 2019-03-17.26160 1.000E-05 12:43:02.700 1.500E-01 0.500 F 0.191 -0.052 +21° 44' 25.90" 1.000E-01 0.500 F 0.258 0.102 19.2 R 0.70 0.00 o 691 0.24 Yes Yes
2014HS178 O C K 2019-03-17.26884 1.000E-05 12:43:03.540 1.500E-01 0.500 F 0.191 -0.306 +21° 45' 03.60" 1.000E-01 0.500 F 0.258 -0.020 19.3 R 0.70 0.10 o 691 0.63 Yes Yes
2019ED2 O C K 2019-03-17.27920 1.000E-05 12:28:35.510 1.500E-01 0.500 F 0.416 0.184 -28° 01' 48.30" 1.000E-01 0.500 F 0.164 -0.133 18.3 R 0.70 -0.46 o 691 0.47 Yes Yes
2019ED2 O C K 2019-03-17.28248 1.000E-05 12:28:37.880 1.500E-01 0.500 F 0.416 0.239 -28° 01' 35.50" 1.000E-01 0.500 F 0.164 -0.007 18.7 R 0.70 -0.06 o 691 0.49 Yes Yes
2019ED2 O C K 2019-03-17.28576 1.000E-05 12:28:40.210 1.500E-01 0.500 F 0.416 -0.215 -28° 01' 23.10" 1.000E-01 0.500 F 0.164 -0.303 18.6 R 0.70 -0.16 o 691 0.77 Yes Yes
2019CN4 O C K 2019-03-17.29181 1.000E-05 12:56:52.350 1.500E-01 0.500 F 0.119 0.139 +08° 16' 11.10" 1.000E-01 0.500 F 0.215 0.063 o 691 0.34 Yes No
2019AP3 O C 2019-03-17.29181 1.000E-05 12:57:20.470 1.500E-01 0.500 F 0.265 0.027 +07° 22' 48.40" 1.000E-01 0.500 F 0.255 0.636 17.8 V 0.70 -0.12 o 691 1.28 Yes Yes
2019CN4 O C K 2019-03-17.29752 1.000E-05 12:56:52.160 1.500E-01 0.500 F 0.119 0.113 +08° 16' 00.30" 1.000E-01 0.500 F 0.215 0.078 19.5 R 0.70 0.01 o 691 0.30 Yes Yes
2019AP3 O C 2019-03-17.29942 1.000E-05 12:57:22.120 1.500E-01 0.500 F 0.265 -0.254 +07° 22' 43.60" 1.000E-01 0.500 F 0.255 -0.114 18.1 V 0.70 0.18 o 691 0.56 Yes Yes
2019CN4 O C K 2019-03-17.30323 1.000E-05 12:56:51.960 1.500E-01 0.500 F 0.119 -0.046 +08° 15' 49.60" 1.000E-01 0.500 F 0.215 0.199 19.5 R 0.70 0.01 o 691 0.42 Yes Yes
2019AP3 O C 2019-03-17.30703 1.000E-05 12:57:23.790 1.500E-01 0.500 F 0.265 -0.197 +07° 22' 39.60" 1.000E-01 0.500 F 0.255 -0.050 18.1 V 0.70 0.18 o 691 0.41 Yes Yes
2019CW5 O C 2019-03-17.35504 1.000E-05 13:34:51.620 1.500E-01 0.500 F 0.388 0.100 -09° 09' 28.80" 1.000E-01 0.500 F 0.109 0.998 20.5 V 0.70 0.93 o 691 2.04 Yes Yes
2019CW5 O C 2019-03-17.36219 1.000E-05 13:34:52.700 1.500E-01 0.500 F 0.388 -0.152 -09° 09' 22.10" 1.000E-01 0.500 F 0.109 0.043 19.6 V 0.70 0.03 o 691 0.32 Yes Yes
2019CW5 O C 2019-03-17.36932 1.000E-05 13:34:53.790 1.500E-01 0.500 F 0.388 -0.197 -09° 09' 14.40" 1.000E-01 0.500 F 0.109 0.098 19.6 V 0.70 0.03 o 691 0.44 Yes Yes
2017EV2 O C K 2019-03-17.37170 1.000E-05 13:35:24.840 1.500E-01 0.500 F 0.223 0.236 -11° 13' 14.00" 1.000E-01 0.500 F 0.137 -0.427 20.1 R 0.70 -0.06 o 691 0.98 Yes Yes
2017EV2 O C K 2019-03-17.37894 1.000E-05 13:35:22.570 1.500E-01 0.500 F 0.223 -0.139 -11° 13' 14.40" 1.000E-01 0.500 F 0.137 -0.201 20.4 R 0.70 0.24 o 691 0.49 Yes Yes
2017EV2 O C K 2019-03-17.38620 1.000E-05 13:35:20.330 1.500E-01 0.500 F 0.223 0.022 -11° 13' 14.70" 1.000E-01 0.500 F 0.137 0.116 20.0 R 0.70 -0.16 o 691 0.24 Yes Yes
2012CP2 O C 2019-03-17.39825 1.000E-05 15:02:28.150 1.500E-01 0.500 F 0.056 -0.573 +17° 03' 00.00" 1.000E-01 0.500 F 0.286 -0.791 19.6 V 0.70 -0.21 o 691 1.98 Yes Yes
2012CP2 O C 2019-03-17.40355 1.000E-05 15:02:29.440 1.500E-01 0.500 F 0.056 -0.046 +17° 03' 07.70" 1.000E-01 0.500 F 0.286 0.074 19.8 V 0.70 -0.01 o 691 0.18 Yes Yes
2012CP2 O C 2019-03-17.40884 1.000E-05 15:02:30.670 1.500E-01 0.500 F 0.056 -0.339 +17° 03' 14.30" 1.000E-01 0.500 F 0.286 -0.141 19.8 V 0.70 -0.01 o 691 0.74 Yes Yes
2015VY150 O C 2019-03-17.41279 1.000E-05 15:46:51.350 1.500E-01 0.500 F 0.170 -0.400 -10° 39' 43.50" 1.000E-01 0.500 F 0.235 -0.152 19.3 V 0.70 0.35 o 691 0.88 Yes Yes
2015VY150 O C 2019-03-17.41715 1.000E-05 15:46:50.920 1.500E-01 0.500 F 0.170 -0.093 -10° 40' 06.20" 1.000E-01 0.500 F 0.235 -0.035 19.5 V 0.70 0.55 o 691 0.20 Yes Yes
2015VY150 O C 2019-03-17.42151 1.000E-05 15:46:50.470 1.500E-01 0.500 F 0.170 -0.066 -10° 40' 29.20" 1.000E-01 0.500 F 0.235 -0.226 19.3 V 0.70 0.35 o 691 0.48 Yes Yes
2011UA131 O C K 2019-03-17.42815 1.000E-05 16:06:48.600 1.500E-01 0.500 F 0.232 -0.076 -27° 41' 23.20" 1.000E-01 0.500 F 0.274 0.179 o 691 0.39 Yes No
2011UA131 O C K 2019-03-17.43212 1.000E-05 16:06:49.310 1.500E-01 0.500 F 0.232 0.055 -27° 41' 20.30" 1.000E-01 0.500 F 0.274 0.125 o 691 0.28 Yes No
2011UA131 O C K 2019-03-17.43608 1.000E-05 16:06:50.020 1.500E-01 0.500 F 0.232 0.211 -27° 41' 17.70" 1.000E-01 0.500 F 0.274 -0.226 o 691 0.62 Yes No
2018TD4 O C K 2019-03-17.44269 1.000E-05 18:17:13.130 1.500E-01 0.500 F 0.019 -0.264 +27° 25' 18.00" 1.000E-01 0.500 F 0.287 -0.057 19.6 R 0.70 0.21 o 691 0.56 Yes Yes
2018TD4 O C K 2019-03-17.44597 1.000E-05 18:17:10.750 1.500E-01 0.500 F 0.019 0.079 +27° 25' 14.10" 1.000E-01 0.500 F 0.287 -0.086 19.2 R 0.70 -0.19 o 691 0.24 Yes Yes
2018TD4 O C K 2019-03-17.44925 1.000E-05 18:17:08.340 1.500E-01 0.500 F 0.019 0.049 +27° 25' 10.10" 1.000E-01 0.500 F 0.287 -0.200 19.3 R 0.70 -0.09 o 691 0.42 Yes Yes
2019EN O C 2019-03-18.15357 1.000E-05 09:38:37.350 1.500E-01 0.500 F 0.287 -0.125 -29° 01' 17.90" 1.000E-01 0.500 F -0.014 0.074 18.1 V 0.70 0.59 o 691 0.29 Yes Yes
2019EN O C 2019-03-18.15839 1.000E-05 09:38:35.300 1.500E-01 0.500 F 0.287 -0.063 -29° 01' 41.30" 1.000E-01 0.500 F -0.014 0.158 17.9 V 0.70 0.39 o 691 0.34 Yes Yes
2019EN O C 2019-03-18.16322 1.000E-05 09:38:33.220 1.500E-01 0.500 F 0.287 -0.275 -29° 02' 04.90" 1.000E-01 0.500 F -0.014 0.073 17.9 V 0.70 0.39 o 691 0.58 Yes Yes
2014EQ49 O C K 2019-03-18.18508 1.000E-05 12:46:28.080 1.500E-01 0.500 F 0.121 -0.009 +16° 17' 03.30" 1.000E-01 0.500 F 0.208 -0.121 19.1 R 0.70 -0.33 o 691 0.25 Yes Yes
2014EQ49 O C K 2019-03-18.22365 1.000E-05 12:46:16.570 1.500E-01 0.500 F 0.121 -0.353 +16° 15' 35.30" 1.000E-01 0.500 F 0.208 -0.168 19.3 R 0.70 -0.12 o 691 0.79 Yes Yes
2019ED2 O C K 2019-03-18.24929 1.000E-05 12:40:49.350 1.500E-01 0.500 F 0.532 0.459 -26° 55' 01.70" 1.000E-01 0.500 F 0.261 0.423 18.1 R 0.70 -0.66 o 691 1.30 Yes Yes
2019ED2 O C K 2019-03-18.25583 1.000E-05 12:40:53.890 1.500E-01 0.500 F 0.532 -0.233 -26° 54' 35.10" 1.000E-01 0.500 F 0.261 0.340 18.3 R 0.70 -0.46 o 691 0.84 Yes Yes
2006SK134 O C 2019-03-18.27074 1.000E-05 13:28:31.780 1.500E-01 0.500 F 0.222 0.309 -18° 58' 53.30" 1.000E-01 0.500 F 0.000 0.439 17.1 V 0.70 -0.05 o 691 1.09 Yes Yes
2006SK134 O C 2019-03-18.27557 1.000E-05 13:28:32.820 1.500E-01 0.500 F 0.222 -0.083 -18° 58' 23.40" 1.000E-01 0.500 F 0.000 0.024 17.3 V 0.70 0.15 o 691 0.17 Yes Yes
2006SK134 O C 2019-03-18.28039 1.000E-05 13:28:33.890 1.500E-01 0.500 F 0.222 -0.004 -18° 57' 53.00" 1.000E-01 0.500 F 0.000 0.148 17.2 V 0.70 0.05 o 691 0.30 Yes Yes
2014HS178 O C K 2019-03-18.28463 1.000E-05 12:45:12.320 1.500E-01 0.500 F 0.261 -0.190 +23° 12' 51.60" 1.000E-01 0.500 F 0.199 -0.223 19.5 R 0.70 0.28 o 691 0.61 Yes Yes
2014HS178 O C K 2019-03-18.29547 1.000E-05 12:45:13.590 1.500E-01 0.500 F 0.261 -0.475 +23° 13' 48.00" 1.000E-01 0.500 F 0.199 -0.088 19.3 R 0.70 0.08 o 691 1.00 Yes Yes
2014HS178 O C K 2019-03-18.31718 1.000E-05 12:45:16.190 1.500E-01 0.500 F 0.262 -0.175 +23° 15' 40.50" 1.000E-01 0.500 F 0.291 -0.248 19.4 R 0.70 0.18 o 691 0.63 Yes Yes
2019CN4 O C K 2019-03-18.32997 1.000E-05 12:56:26.510 1.500E-01 0.500 F 0.247 -0.211 +07° 42' 49.30" 1.000E-01 0.500 F 0.232 -0.042 19.4 R 0.70 -0.04 o 691 0.41 Yes Yes
2019CN4 O C K 2019-03-18.33962 1.000E-05 12:56:26.180 1.500E-01 0.500 F 0.247 0.129 +07° 42' 30.50" 1.000E-01 0.500 F 0.232 -0.030 19.3 R 0.70 -0.14 o 691 0.29 Yes Yes
2019CN4 O C K 2019-03-18.34928 1.000E-05 12:56:25.810 1.500E-01 0.500 F 0.247 -0.102 +07° 42' 11.60" 1.000E-01 0.500 F 0.232 -0.082 19.2 R 0.70 -0.24 o 691 0.24 Yes Yes
2019DN O C 2019-03-18.36076 1.000E-05 13:28:13.930 1.500E-01 0.500 F 0.217 0.383 -10° 44' 59.70" 1.000E-01 0.500 F 0.127 -0.249 16.9 R 0.70 -0.18 o 691 0.92 Yes Yes
2019DN O C 2019-03-18.36513 1.000E-05 13:28:15.820 1.500E-01 0.500 F 0.217 0.095 -10° 45' 29.60" 1.000E-01 0.500 F 0.127 0.030 17.0 R 0.70 -0.08 o 691 0.20 Yes Yes
2019DN O C 2019-03-18.36948 1.000E-05 13:28:17.710 1.500E-01 0.500 F 0.217 -0.037 -10° 45' 59.60" 1.000E-01 0.500 F 0.127 0.035 16.9 R 0.70 -0.18 o 691 0.10 Yes Yes
2019CW5 O C 2019-03-18.37161 1.000E-05 13:37:38.310 1.500E-01 0.500 F 0.388 -0.134 -08° 51' 04.50" 1.000E-01 0.500 F 0.109 -0.099 19.2 R 0.70 0.04 o 691 0.34 Yes Yes
2019CW5 O C 2019-03-18.37783 1.000E-05 13:37:39.250 1.500E-01 0.500 F 0.388 0.041 -08° 50' 57.70" 1.000E-01 0.500 F 0.109 -0.109 19.3 R 0.70 0.14 o 691 0.24 Yes Yes
2019CW5 O C 2019-03-18.38403 1.000E-05 13:37:40.190 1.500E-01 0.500 F 0.388 0.266 -08° 50' 51.10" 1.000E-01 0.500 F 0.109 -0.306 19.0 R 0.70 -0.16 o 691 0.82 Yes Yes
2019BJ2 O C K 2019-03-18.38876 1.000E-05 13:41:19.350 1.500E-01 0.500 F 0.267 -0.089 -09° 20' 10.60" 1.000E-01 0.500 F 0.124 -0.063 19.3 R 0.70 -0.39 o 691 0.22 Yes Yes
2019BJ2 O C K 2019-03-18.40739 1.000E-05 13:41:16.330 1.500E-01 0.500 F 0.267 0.004 -09° 21' 00.70" 1.000E-01 0.500 F 0.124 0.222 19.5 R 0.70 -0.19 o 691 0.45 Yes Yes
2019BJ2 O C K 2019-03-18.42602 1.000E-05 13:41:13.300 1.500E-01 0.500 F 0.267 -0.127 -09° 21' 51.00" 1.000E-01 0.500 F 0.124 0.130 19.4 R 0.70 -0.29 o 691 0.37 Yes Yes
2012CP2 O C 2019-03-18.45061 1.000E-05 15:06:50.050 1.500E-01 0.500 F 0.070 0.036 +17° 25' 27.70" 1.000E-01 0.500 F 0.261 -0.155 19.8 R 0.70 0.43 o 691 0.32 Yes Yes
2012CP2 O C 2019-03-18.45613 1.000E-05 15:06:51.360 1.500E-01 0.500 F 0.070 -0.233 +17° 25' 34.80" 1.000E-01 0.500 F 0.261 -0.142 19.7 R 0.70 0.33 o 691 0.55 Yes Yes
2012CP2 O C 2019-03-18.46164 1.000E-05 15:06:52.690 1.500E-01 0.500 F 0.070 -0.184 +17° 25' 42.10" 1.000E-01 0.500 F 0.261 0.092 19.5 R 0.70 0.13 o 691 0.42 Yes Yes
2016FF15 O C 2019-03-18.46369 1.000E-05 15:18:40.680 1.500E-01 0.500 F 0.204 0.207 +10° 49' 00.40" 1.000E-01 0.500 F 0.142 0.204 19.0 R 0.70 0.01 o 691 0.59 Yes Yes
2016FF15 O C 2019-03-18.46852 1.000E-05 15:18:39.390 1.500E-01 0.500 F 0.204 0.055 +10° 49' 02.60" 1.000E-01 0.500 F 0.142 0.178 18.7 R 0.70 -0.29 o 691 0.38 Yes Yes
2016FF15 O C 2019-03-18.47342 1.000E-05 15:18:38.100 1.500E-01 0.500 F 0.204 0.175 +10° 49' 05.00" 1.000E-01 0.500 F 0.142 0.324 18.9 R 0.70 -0.09 o 691 0.75 Yes Yes
2015VY150 O C 2019-03-18.47730 1.000E-05 15:45:16.210 1.500E-01 0.500 F 0.134 -0.056 -12° 11' 01.50" 1.000E-01 0.500 F 0.193 -0.018 19.0 R 0.70 0.45 o 691 0.12 Yes Yes
2015VY150 O C 2019-03-18.48212 1.000E-05 15:45:15.670 1.500E-01 0.500 F 0.134 -0.268 -12° 11' 26.20" 1.000E-01 0.500 F 0.193 -0.249 18.7 R 0.70 0.15 o 691 0.75 Yes Yes
2015VY150 O C 2019-03-18.48693 1.000E-05 15:45:15.170 1.500E-01 0.500 F 0.134 0.090 -12° 11' 50.20" 1.000E-01 0.500 F 0.193 0.157 18.9 R 0.70 0.35 o 691 0.37 Yes Yes
2018TD4 O C 2019-03-18.49171 1.000E-05 18:05:14.160 1.500E-01 0.500 F -0.042 0.188 +26° 59' 41.70" 1.000E-01 0.500 F 0.336 0.358 19.2 R 0.70 -0.12 o 691 0.83 Yes Yes
2018TD4 O C 2019-03-18.49607 1.000E-05 18:05:11.080 1.500E-01 0.500 F -0.042 -0.141 +26° 59' 35.00" 1.000E-01 0.500 F 0.336 -0.198 19.3 R 0.70 -0.02 o 691 0.50 Yes Yes
2018TD4 O C 2019-03-18.50042 1.000E-05 18:05:08.060 1.500E-01 0.500 F -0.042 0.261 +26° 59' 28.90" 1.000E-01 0.500 F 0.336 -0.138 19.3 R 0.70 -0.02 o 691 0.60 Yes Yes
2008EB32 O C K 2019-03-24.15991 1.000E-05 08:08:40.090 1.500E-01 0.500 F -0.006 -0.267 +15° 25' 31.70" 1.000E-01 0.500 F 0.115 0.088 21.0 R 0.70 0.46 o 691 0.57 Yes Yes
2018XU2 O C K 2019-03-24.16688 1.000E-05 08:44:44.130 1.500E-01 0.500 F 0.161 -0.007 +08° 00' 09.90" 1.000E-01 0.500 F 0.180 0.150 o 691 0.32 Yes No
2008EB32 O C K 2019-03-24.17226 1.000E-05 08:08:40.230 1.500E-01 0.500 F -0.006 -0.330 +15° 25' 37.90" 1.000E-01 0.500 F 0.115 0.721 21.0 R 0.70 0.46 o 691 1.59 Yes Yes
2018XU2 O C K 2019-03-24.17916 1.000E-05 08:44:45.930 1.500E-01 0.500 F 0.161 0.246 +08° 00' 05.90" 1.000E-01 0.500 F 0.180 -0.239 o 691 0.74 Yes No
2008EB32 O C K 2019-03-24.18451 1.000E-05 08:08:40.380 1.500E-01 0.500 F -0.006 -0.250 +15° 25' 43.30" 1.000E-01 0.500 F 0.115 0.617 20.9 R 0.70 0.36 o 691 1.34 Yes Yes
2018XU2 O C K 2019-03-24.19131 1.000E-05 08:44:47.670 1.500E-01 0.500 F 0.161 -0.118 +08° 00' 02.60" 1.000E-01 0.500 F 0.180 0.048 o 691 0.28 Yes No
2003FF5 O C K 2019-03-24.19658 1.000E-05 09:02:18.260 1.500E-01 0.500 F 0.153 -1.363 +05° 15' 02.00" 1.000E-01 0.500 F 0.178 -0.013 o 691 2.77 Yes No
2003FF5 O C K 2019-03-24.21523 1.000E-05 09:02:16.110 1.500E-01 0.500 F 0.153 0.012 +05° 15' 44.00" 1.000E-01 0.500 F 0.178 -0.166 o 691 0.34 Yes No
2019DJ O C K 2019-03-24.25293 1.000E-05 09:26:51.800 1.500E-01 0.500 F 0.137 -0.217 -11° 27' 02.30" 1.000E-01 0.500 F -0.002 0.055 20.8 R 0.70 0.16 o 691 0.46 Yes Yes
2019CS1 O C K 2019-03-24.26078 1.000E-05 09:30:52.140 1.500E-01 0.500 F 0.149 -0.164 +01° 30' 38.20" 1.000E-01 0.500 F 0.231 -0.079 20.7 R 0.70 -0.32 o 691 0.38 Yes Yes
2019CE5 O C K 2019-03-24.26942 1.000E-05 09:46:17.150 1.500E-01 0.500 F 0.139 -0.129 -04° 44' 06.50" 1.000E-01 0.500 F 0.040 0.119 20.7 R 0.70 0.70 o 691 0.36 Yes Yes
2019DJ O C K 2019-03-24.27581 1.000E-05 09:26:51.640 1.500E-01 0.500 F 0.137 0.161 -11° 27' 58.30" 1.000E-01 0.500 F -0.002 -0.401 21.0 R 0.70 0.36 o 691 0.89 Yes Yes
2019CS1 O C K 2019-03-24.28358 1.000E-05 09:30:51.770 1.500E-01 0.500 F 0.149 0.149 +01° 30' 45.70" 1.000E-01 0.500 F 0.231 -0.291 21.1 R 0.70 0.08 o 691 0.67 Yes Yes
2019CE5 O C K 2019-03-24.29222 1.000E-05 09:46:18.720 1.500E-01 0.500 F 0.139 -0.174 -04° 45' 00.70" 1.000E-01 0.500 F 0.040 -0.050 20.9 R 0.70 0.90 o 691 0.37 Yes Yes
2019FE O C 2019-03-24.40032 1.000E-05 14:13:27.010 1.500E-01 0.500 F 0.245 -0.177 -06° 05' 09.40" 1.000E-01 0.500 F 0.174 -0.331 o 691 0.75 Yes No
2019FE O C 2019-03-24.41221 1.000E-05 14:13:24.880 1.500E-01 0.500 F 0.245 -0.070 -06° 04' 48.80" 1.000E-01 0.500 F 0.174 0.030 o 691 0.15 Yes No
2019FE O C 2019-03-24.42277 1.000E-05 14:13:22.990 1.500E-01 0.500 F 0.245 -0.074 -06° 04' 30.70" 1.000E-01 0.500 F 0.174 0.123 o 691 0.29 Yes No
2012XO134 O C K 2019-03-24.42678 1.000E-05 14:03:28.610 1.500E-01 0.500 F 0.194 0.234 -03° 37' 58.90" 1.000E-01 0.500 F 0.218 -0.038 o 691 0.48 Yes No
2012XO134 O C K 2019-03-24.43610 1.000E-05 14:03:28.170 1.500E-01 0.500 F 0.194 0.231 -03° 37' 44.10" 1.000E-01 0.500 F 0.218 0.208 o 691 0.63 Yes No
2012XO134 O C K 2019-03-24.44543 1.000E-05 14:03:27.690 1.500E-01 0.500 F 0.194 -0.394 -03° 37' 29.60" 1.000E-01 0.500 F 0.218 0.118 o 691 0.82 Yes No
2019BJ2 O C K 2019-03-24.45529 1.000E-05 13:27:26.100 1.500E-01 0.559 F 0.287 -0.031 -13° 23' 59.20" 1.000E-01 0.559 F -0.020 0.064 o 691 0.13 Yes No
2019BJ2 O C K 2019-03-24.46320 1.000E-05 13:27:24.850 1.500E-01 0.559 F 0.287 -0.022 -13° 24' 15.90" 1.000E-01 0.559 F -0.020 -0.295 o 691 0.53 Yes No
2019BJ2 O C 2019-03-24.46718 1.000E-05 13:27:24.210 1.500E-01 0.559 F 0.287 -0.209 -13° 24' 23.70" 1.000E-01 0.559 F -0.020 0.114 o 691 0.43 Yes No
2019BJ2 O C K 2019-03-24.47114 1.000E-05 13:27:23.600 1.500E-01 0.559 F 0.287 -0.027 -13° 24' 32.00" 1.000E-01 0.559 F -0.020 -0.027 o 691 0.07 Yes No
2019BJ2 O C 2019-03-24.47777 1.000E-05 13:27:22.540 1.500E-01 0.559 F 0.287 -0.337 -13° 24' 45.90" 1.000E-01 0.559 F -0.020 -0.285 o 691 0.80 Yes No
2009FU23 O C K 2019-03-24.48542 1.000E-05 17:42:22.590 1.500E-01 0.500 F -0.023 -0.204 +12° 55' 00.70" 1.000E-01 0.500 F 0.237 0.162 19.6 R 0.70 0.06 o 691 0.52 Yes Yes
2009FU23 O C K 2019-03-24.49008 1.000E-05 17:42:23.130 1.500E-01 0.500 F -0.023 -0.072 +12° 55' 01.00" 1.000E-01 0.500 F 0.237 -0.616 19.2 R 0.70 -0.34 o 691 1.26 Yes Yes
2009FU23 O C K 2019-03-24.49474 1.000E-05 17:42:23.670 1.500E-01 0.500 F -0.023 0.066 +12° 55' 02.70" 1.000E-01 0.500 F 0.237 0.010 19.7 R 0.70 0.16 o 691 0.13 Yes Yes
2018XG5 O C K 2019-03-25.11428 1.000E-05 04:45:40.340 1.500E-01 0.500 F -0.260 -0.137 -06° 19' 24.10" 1.000E-01 0.500 F 0.043 0.099 o 691 0.34 Yes No
2018XG5 O C K 2019-03-25.11894 1.000E-05 04:45:40.900 1.500E-01 0.500 F -0.260 0.370 -06° 19' 22.60" 1.000E-01 0.500 F 0.043 -0.024 o 691 0.74 Yes No
2018XG5 O C K 2019-03-25.12359 1.000E-05 04:45:41.420 1.500E-01 0.500 F -0.260 0.285 -06° 19' 20.90" 1.000E-01 0.500 F 0.043 0.054 o 691 0.58 Yes No
2015HV171 O C K 2019-03-25.13158 1.000E-05 05:14:47.770 1.500E-01 0.500 F -0.136 -0.580 -12° 49' 39.40" 1.000E-01 0.500 F 0.098 -0.255 o 691 1.27 Yes No
2015HV171 O C K 2019-03-25.13727 1.000E-05 05:14:48.530 1.500E-01 0.500 F -0.136 0.070 -12° 49' 36.30" 1.000E-01 0.500 F 0.098 0.180 o 691 0.39 Yes No
2015HV171 O C K 2019-03-25.14298 1.000E-05 05:14:49.250 1.500E-01 0.500 F -0.136 0.092 -12° 49' 34.00" 1.000E-01 0.500 F 0.098 -0.195 o 691 0.43 Yes No
2005EU95 O C K 2019-03-25.15867 1.000E-05 07:38:59.330 1.500E-01 0.500 F -0.105 0.768 +21° 17' 25.00" 1.000E-01 0.500 F 0.368 -0.144 21.9 R 0.70 0.93 o 691 1.75 Yes Yes
2005EU95 O C K 2019-03-25.16800 1.000E-05 07:38:59.000 1.500E-01 0.500 F -0.105 0.476 +21° 17' 51.50" 1.000E-01 0.500 F 0.368 0.185 21.4 R 0.70 0.43 o 691 1.14 Yes Yes
2005EU95 O C K 2019-03-25.17732 1.000E-05 07:38:58.660 1.500E-01 0.500 F -0.105 0.019 +21° 18' 17.30" 1.000E-01 0.500 F 0.368 -0.134 21.6 R 0.70 0.63 o 691 0.32 Yes Yes
2019CE5 O C K 2019-03-25.19050 1.000E-05 09:47:44.120 1.500E-01 0.500 F 0.139 -0.033 -05° 19' 46.50" 1.000E-01 0.500 F 0.040 -0.054 o 691 0.13 Yes No
2019CE5 O C K 2019-03-25.19516 1.000E-05 09:47:44.450 1.500E-01 0.500 F 0.139 0.198 -05° 19' 57.00" 1.000E-01 0.500 F 0.040 0.011 o 691 0.40 Yes No
2019CE5 O C K 2019-03-25.19981 1.000E-05 09:47:44.730 1.500E-01 0.500 F 0.139 -0.303 -05° 20' 07.60" 1.000E-01 0.500 F 0.040 -0.054 o 691 0.62 Yes No
1995BC2 O C 2019-03-25.20720 1.000E-05 10:15:23.870 1.500E-01 0.500 F 0.251 -1.114 +07° 20' 35.30" 1.000E-01 0.500 F 0.215 0.073 o 691 2.24 Yes No
2019EN1 O C K 2019-03-25.20720 1.000E-05 10:15:10.670 1.500E-01 0.500 F 0.251 -0.122 +06° 52' 53.20" 1.000E-01 0.500 F 0.215 0.209 20.5 R 0.70 0.32 o 691 0.49 Yes Yes
2019EN1 O C K 2019-03-25.21443 1.000E-05 10:15:12.560 1.500E-01 0.500 F 0.251 0.156 +06° 52' 28.60" 1.000E-01 0.500 F 0.215 0.425 20.6 R 0.70 0.42 o 691 0.92 Yes Yes
1995BC2 O C 2019-03-25.21804 1.000E-05 10:15:23.440 1.500E-01 0.500 F 0.251 -0.558 +07° 20' 36.00" 1.000E-01 0.500 F 0.215 -0.677 o 691 1.76 Yes No
2019EN1 O C K 2019-03-25.22166 1.000E-05 10:15:14.410 1.500E-01 0.500 F 0.251 -0.145 +06° 52' 03.30" 1.000E-01 0.500 F 0.215 -0.056 20.7 R 0.70 0.52 o 691 0.31 Yes Yes
1995BC2 O C 2019-03-25.22770 1.000E-05 10:15:23.060 1.500E-01 0.500 F 0.251 -0.016 +07° 20' 38.00" 1.000E-01 0.500 F 0.215 0.034 o 691 0.08 Yes No
2019CO5 O C K 2019-03-25.23460 1.000E-05 10:20:27.060 1.500E-01 0.500 F 0.110 -0.295 -04° 05' 06.30" 1.000E-01 0.500 F 0.142 0.211 20.6 R 0.70 -0.01 o 691 0.74 Yes Yes
2019CO5 O C K 2019-03-25.24138 1.000E-05 10:20:26.930 1.500E-01 0.500 F 0.110 0.029 -04° 05' 18.40" 1.000E-01 0.500 F 0.142 0.118 20.6 R 0.70 -0.01 o 691 0.25 Yes Yes
2019CO5 O C K 2019-03-25.24816 1.000E-05 10:20:26.760 1.500E-01 0.500 F 0.110 -0.250 -04° 05' 30.50" 1.000E-01 0.500 F 0.142 0.018 20.8 R 0.70 0.19 o 691 0.51 Yes Yes
1998FF14 O C K 2019-03-25.25659 1.000E-05 10:36:23.360 1.500E-01 0.500 F 0.147 0.100 +23° 50' 25.30" 1.000E-01 0.500 F 0.293 0.221 20.4 R 0.70 0.03 o 691 0.49 Yes Yes
1998FF14 O C K 2019-03-25.26382 1.000E-05 10:36:21.120 1.500E-01 0.500 F 0.147 0.105 +23° 50' 07.40" 1.000E-01 0.500 F 0.293 -0.075 20.6 R 0.70 0.23 o 691 0.26 Yes Yes
1998FF14 O C K 2019-03-25.27105 1.000E-05 10:36:18.860 1.500E-01 0.500 F 0.147 -0.172 +23° 49' 49.90" 1.000E-01 0.500 F 0.293 0.046 20.1 R 0.70 -0.27 o 691 0.36 Yes Yes
2019EQ2 O C K 2019-03-25.27882 1.000E-05 10:53:46.590 1.500E-01 0.500 F 0.170 0.098 +27° 01' 31.60" 1.000E-01 0.500 F 0.199 0.302 19.7 R 0.70 -0.27 o 691 0.65 Yes Yes
2019EQ2 O C K 2019-03-25.28318 1.000E-05 10:53:46.830 1.500E-01 0.500 F 0.170 0.247 +27° 01' 54.40" 1.000E-01 0.500 F 0.199 -0.076 19.8 R 0.70 -0.17 o 691 0.53 Yes Yes
2019EQ2 O C K 2019-03-25.28754 1.000E-05 10:53:47.040 1.500E-01 0.500 F 0.170 -0.007 +27° 02' 17.60" 1.000E-01 0.500 F 0.199 -0.041 20.0 R 0.70 0.02 o 691 0.09 Yes Yes
2019EU2 O C K 2019-03-25.29862 1.000E-05 11:47:03.050 1.500E-01 0.500 F 0.243 0.059 -13° 05' 18.40" 1.000E-01 0.500 F 0.123 0.020 20.2 R 0.70 -0.27 o 691 0.12 Yes Yes
2019EU2 O C K 2019-03-25.32048 1.000E-05 11:47:01.910 1.500E-01 0.500 F 0.243 0.194 -13° 04' 21.00" 1.000E-01 0.500 F 0.123 -0.373 20.4 R 0.70 -0.07 o 691 0.85 Yes Yes
2019EU2 O C K 2019-03-25.34224 1.000E-05 11:47:00.790 1.500E-01 0.500 F 0.243 0.477 -13° 03' 23.30" 1.000E-01 0.500 F 0.123 -0.228 20.8 R 0.70 0.33 o 691 1.07 Yes Yes
2014EQ49 O C K 2019-03-25.36413 1.000E-05 12:13:32.350 1.500E-01 0.500 F 0.271 -0.081 +11° 30' 19.70" 1.000E-01 0.500 F 0.312 -0.156 19.2 R 0.70 -0.16 o 691 0.36 Yes Yes
2014EQ49 O C K 2019-03-25.37123 1.000E-05 12:13:30.440 1.500E-01 0.500 F 0.271 -0.171 +11° 30' 02.60" 1.000E-01 0.500 F 0.312 -0.033 19.2 R 0.70 -0.16 o 691 0.35 Yes Yes
2014EQ49 O C K 2019-03-25.37832 1.000E-05 12:13:28.560 1.500E-01 0.500 F 0.271 0.112 +11° 29' 45.40" 1.000E-01 0.500 F 0.312 -0.022 19.2 R 0.70 -0.16 o 691 0.23 Yes Yes
2018TG6 O C K 2019-03-25.38734 1.000E-05 12:24:13.760 1.500E-01 0.500 F 0.292 -0.614 +01° 11' 43.50" 1.000E-01 0.500 F 0.214 0.457 o 691 1.59 Yes No
2018TG6 O C K 2019-03-25.40171 1.000E-05 12:24:11.180 1.500E-01 0.500 F 0.292 0.315 +01° 11' 43.00" 1.000E-01 0.500 F 0.214 0.362 o 691 0.99 Yes No
2018TG6 O C K 2019-03-25.41608 1.000E-05 12:24:08.560 1.500E-01 0.500 F 0.292 0.150 +01° 11' 42.50" 1.000E-01 0.500 F 0.214 0.286 o 691 0.66 Yes No
2019BJ2 O C K 2019-03-25.43190 1.000E-05 13:25:12.940 1.500E-01 0.500 F 0.159 0.172 -13° 57' 37.20" 1.000E-01 0.500 F -0.019 0.136 19.5 R 0.70 -0.22 o 691 0.44 Yes Yes
2019BJ2 O C K 2019-03-25.44004 1.000E-05 13:25:11.640 1.500E-01 0.500 F 0.159 0.056 -13° 57' 53.40" 1.000E-01 0.500 F -0.019 0.039 19.6 R 0.70 -0.12 o 691 0.14 Yes Yes
2019BJ2 O C K 2019-03-25.44820 1.000E-05 13:25:10.350 1.500E-01 0.500 F 0.159 0.058 -13° 58' 09.50" 1.000E-01 0.500 F -0.019 0.041 19.6 R 0.70 -0.12 o 691 0.14 Yes Yes
2019FE O C 2019-03-25.45672 1.000E-05 14:11:33.610 1.500E-01 0.500 F 0.245 -0.212 -05° 38' 27.50" 1.000E-01 0.500 F 0.174 -0.215 o 691 0.60 Yes No
2019FE O C 2019-03-25.46154 1.000E-05 14:11:32.900 1.500E-01 0.500 F 0.245 -0.155 -05° 38' 20.50" 1.000E-01 0.500 F 0.174 0.104 o 691 0.37 Yes No
2019FE O C 2019-03-25.46637 1.000E-05 14:11:32.200 1.500E-01 0.500 F 0.245 0.013 -05° 38' 14.00" 1.000E-01 0.500 F 0.174 -0.095 o 691 0.19 Yes No
2015PM57 O C K 2019-03-26.11808 1.000E-05 02:41:55.750 1.500E-01 0.500 F -0.341 0.820 +20° 47' 44.30" 1.000E-01 0.500 F 0.286 -0.303 o 691 1.75 Yes No
2015PM57 O C K 2019-03-26.12290 1.000E-05 02:41:57.230 1.500E-01 0.500 F -0.341 0.176 +20° 48' 04.00" 1.000E-01 0.500 F 0.286 0.050 o 691 0.37 Yes No
2015PM57 O C K 2019-03-26.12773 1.000E-05 02:41:58.700 1.500E-01 0.500 F -0.341 -0.663 +20° 48' 23.30" 1.000E-01 0.500 F 0.286 -0.038 o 691 1.33 Yes No
2003RC2 O C K 2019-03-26.14328 1.000E-05 08:20:31.090 1.500E-01 0.500 F 0.024 -0.308 +19° 59' 32.50" 1.000E-01 0.500 F 0.281 0.069 20.2 R 0.70 0.50 o 691 0.65 Yes Yes
2003RC2 O C K 2019-03-26.14724 1.000E-05 08:20:31.790 1.500E-01 0.500 F 0.024 -0.270 +19° 59' 48.20" 1.000E-01 0.500 F 0.281 0.205 19.7 R 0.70 0.00 o 691 0.69 Yes Yes

[1-200] [201-400] [401-600] [601-800] [801-1000] [1001-1200] [1201-1400] [1401-1600] [1601-1800] [1801-2000] [2001-2200] [2201-2400] [2401-2600] [2601-2800] [2801-3000] [3001-3200] [3201-3400] [3401-3600] [3601-3800] [3801-4000] [4001-4200] [4201-4400] [4401-4600] [4601-4800] [4801-5000] [5001-5200] [5201-5400] [5401-5600] [5601-5800] [5801-6000] [6001-6200] [6201-6400] [6401-6600] [6601-6800] [6801-7000] [7001-7200] [7201-7400] [7401-7600] [7601-7800] [7801-8000] [8001-8200] [8201-8400] [8401-8600] [8601-8800] [8801-9000] [9001-9200] [9201-9400] [9401-9600] [9601-9800] [9801-10000] [10001-10200] [10201-10400] [10401-10600] [10601-10800] [10801-11000] [11001-11200] [11201-11400] [11401-11600] [11601-11800] [11801-12000] [12001-12200] [12201-12400] [12401-12600] [12601-12800] [12801-13000] [13001-13200] [13201-13400] [13401-13600] [13601-13800] [13801-14000] [14001-14200] [14201-14400] [14401-14600] [14601-14800] [14801-15000] [15001-15200] [15201-15400] [15401-15600] [15601-15800] [15801-16000] [16001-16200] [16201-16400] [16401-16600] [16601-16800] [16801-17000] [17001-17200] [17201-17400] [17401-17600] [17601-17800] [17801-18000] [18001-18200] [18201-18400] [18401-18600] [18601-18800] [18801-19000] [19001-19200] [19201-19400] [19401-19600] [19601-19800] [19801-20000] [20001-20200] [20201-20400] [20401-20600] [20601-20800] [20801-21000] [21001-21200] [21201-21400] [21401-21600] [21601-21800] [21801-22000] [22001-22200] [22201-22400] [22401-22600] [22601-22800] [22801-23000] [23001-23200] [23201-23400] [23401-23600] [23601-23800] [23801-24000] [24001-24200] [24201-24400] [24401-24600] [24601-24800] [24801-25000] [25001-25200] [25201-25400] [25401-25600] [25601-25800] [25801-26000] [26001-26200] [26201-26400] [26401-26600] [26601-26800] [26801-27000] [27001-27200] [27201-27400] [27401-27600] [27601-27800] [27801-28000] [28001-28200] [28201-28400] [28401-28600] [28601-28800] [28801-29000] [29001-29200] [29201-29400] [29401-29600] [29601-29800] [29801-30000] [30001-30200] [30201-30400] [30401-30600] [30601-30800] [30801-31000] [31001-31200] [31201-31400] [31401-31600] [31601-31800] [31801-32000] [32001-32200] [32201-32400] [32401-32600] [32601-32800] [32801-33000] [33001-33200] [33201-33400] [33401-33600] [33601-33800] [33801-34000] [34001-34200] [34201-34400] [34401-34600] [34601-34800] [34801-35000] [35001-35200] [35201-35400] [35401-35600] [35601-35800] [35801-36000] [36001-36200] [36201-36400] [36401-36600] [36601-36800] [36801-37000] [37001-37200] [37201-37400] [37401-37600] [37601-37800] [37801-38000] [38001-38200] [38201-38400] [38401-38600] [38601-38800] [38801-39000] [39001-39200] [39201-39400] [39401-39600] [39601-39800] [39801-40000] [40001-40200] [40201-40400] [40401-40600] [40601-40800] [40801-41000] [41001-41200] [41201-41400] [41401-41600] [41601-41800] [41801-42000] [42001-42200] [42201-42400] [42401-42600] [42601-42800] [42801-43000] [43001-43200] [43201-43400] [43401-43600] [43601-43800] [43801-44000] [44001-44200] [44201-44400] [44401-44600] [44601-44800] [44801-45000] [45001-45200] [45201-45400] [45401-45600] [45601-45800] [45801-46000] [46001-46200] [46201-46400] [46401-46600] [46601-46800] [46801-47000] [47001-47200] [47201-47400] [47401-47600] [47601-47800] [47801-48000] [48001-48200] [48201-48400] [48401-48600] [48601-48800] [48801-49000] [49001-49200] [49201-49400] [49401-49600] [49601-49800] [49801-50000] [50001-50200] [50201-50388]